sim
Sign-in with your pilot id or email,
or register
Callsign
Passwort

Schedule Details

Flight Number: OEO7832
Departure: Dubai International Airport (OMDB) at 23:40
Arrival: Delhi Indira Gandhi International Airport (VIDP) at 03:05

Weather Information
Getting current METAR information for OMDB 312200Z 10003KT 050V170 7000 NSC 25/21 Q1015 NOSIG
Getting current METAR information for VIDP 312230Z 00000KT 1200 R28/P2000 R29/P2000 FU NSC 17/11 Q1013 NOSIG

Schedule Frequency

Route Map